createdAt,value
2018-07-17T00:00:56.028Z,6.60
2018-07-17T00:03:24.489Z,7.33
2018-07-17T00:05:53.269Z,6.70
2018-07-17T00:08:22.114Z,6.73
2018-07-17T00:10:50.970Z,7.30
2018-07-17T00:13:19.610Z,6.33
2018-07-17T00:15:48.398Z,6.60
2018-07-17T00:18:17.154Z,6.50
2018-07-17T00:20:45.650Z,6.53
2018-07-17T00:23:14.134Z,6.90
2018-07-17T00:25:43.158Z,6.53
2018-07-17T00:28:11.739Z,6.63
2018-07-17T00:30:40.149Z,7.17
2018-07-17T00:33:08.966Z,7.10
2018-07-17T00:35:38.046Z,6.77
2018-07-17T00:38:06.705Z,7.23
2018-07-17T00:40:35.138Z,7.13
2018-07-17T00:43:03.567Z,6.43
2018-07-17T00:45:32.302Z,7.07
2018-07-17T00:48:01.172Z,6.53
2018-07-17T00:50:30.012Z,7.20
2018-07-17T00:52:58.658Z,7.10
2018-07-17T00:55:27.092Z,6.57
2018-07-17T00:57:55.536Z,6.70
2018-07-17T01:00:29.604Z,6.83
2018-07-17T01:03:03.123Z,7.20
2018-07-17T01:05:36.845Z,6.90
2018-07-17T01:08:10.794Z,6.67
2018-07-17T01:10:44.500Z,6.40
2018-07-17T01:13:19.572Z,6.80
2018-07-17T01:15:48.381Z,7.13
2018-07-17T01:18:17.338Z,7.10
2018-07-17T01:20:46.615Z,6.97
2018-07-17T01:23:15.142Z,7.27
2018-07-17T01:25:43.723Z,6.73
2018-07-17T01:28:12.232Z,6.70
2018-07-17T01:30:47.958Z,6.77
2018-07-17T01:33:16.362Z,7.00
2018-07-17T01:35:45.019Z,7.13
2018-07-17T01:38:13.826Z,6.83
2018-07-17T01:40:42.279Z,6.93
2018-07-17T01:43:10.777Z,6.23
2018-07-17T01:45:39.753Z,6.53
2018-07-17T01:48:08.631Z,7.20
2018-07-17T01:50:37.455Z,6.30
2018-07-17T01:53:06.330Z,7.20
2018-07-17T01:55:35.124Z,7.00
2018-07-17T01:58:03.817Z,6.83
2018-07-17T02:00:32.799Z,6.80
2018-07-17T02:03:01.516Z,6.33
2018-07-17T02:05:29.922Z,6.93
2018-07-17T02:07:58.341Z,6.80
2018-07-17T02:10:26.933Z,6.47
2018-07-17T02:12:55.326Z,6.80
2018-07-17T02:15:23.930Z,6.50
2018-07-17T02:17:52.682Z,6.80
2018-07-17T02:20:21.286Z,6.73
2018-07-17T02:22:50.044Z,6.90
2018-07-17T02:25:18.738Z,7.30
2018-07-17T02:27:47.464Z,6.90
2018-07-17T02:30:16.977Z,6.77
2018-07-17T02:32:45.370Z,7.00
2018-07-17T02:35:14.410Z,6.70
2018-07-17T02:37:42.920Z,6.83
2018-07-17T02:40:11.612Z,6.37
2018-07-17T02:42:40.154Z,6.70
2018-07-17T02:45:09.043Z,6.10
2018-07-17T02:47:37.433Z,6.43
2018-07-17T02:50:06.347Z,6.10
2018-07-17T02:52:35.214Z,6.60
2018-07-17T02:55:03.678Z,6.67
2018-07-17T02:57:32.078Z,6.40
2018-07-17T03:00:00.834Z,6.33
2018-07-17T03:02:29.628Z,6.40
2018-07-17T03:04:58.039Z,7.00
2018-07-17T03:07:26.595Z,6.50
2018-07-17T03:09:55.391Z,7.23
2018-07-17T03:12:23.790Z,6.77
2018-07-17T03:14:52.742Z,7.07
2018-07-17T03:17:21.435Z,6.57
2018-07-17T03:19:50.676Z,6.80
2018-07-17T03:22:19.406Z,6.60
2018-07-17T03:24:47.949Z,6.07
2018-07-17T03:27:16.607Z,6.40
2018-07-17T03:29:45.383Z,6.27
2018-07-17T03:32:13.794Z,6.50
2018-07-17T03:34:42.548Z,5.77
2018-07-17T03:37:11.466Z,5.97
2018-07-17T03:39:39.884Z,5.80
2018-07-17T03:42:08.803Z,6.60
2018-07-17T03:44:37.496Z,6.47
2018-07-17T03:47:05.890Z,5.67
2018-07-17T03:49:34.769Z,6.03
2018-07-17T03:52:03.839Z,6.60
2018-07-17T03:54:32.266Z,6.13
2018-07-17T03:57:00.672Z,5.87
2018-07-17T03:59:29.719Z,5.63
2018-07-17T04:01:58.146Z,5.70
2018-07-17T04:04:26.882Z,5.70
2018-07-17T04:06:55.738Z,5.20
2018-07-17T04:09:24.127Z,6.23
2018-07-17T04:11:52.531Z,5.90
2018-07-17T04:14:21.396Z,5.83
2018-07-17T04:16:58.128Z,5.47
2018-07-17T04:19:27.434Z,5.80
2018-07-17T04:21:55.859Z,6.30
2018-07-17T04:24:24.890Z,6.27
2018-07-17T04:26:54.133Z,5.90
2018-07-17T04:29:23.057Z,5.40
2018-07-17T04:31:51.863Z,6.50
2018-07-17T04:34:20.804Z,6.27
2018-07-17T04:36:49.746Z,5.77
2018-07-17T04:39:18.490Z,5.97
2018-07-17T04:41:47.713Z,5.50
2018-07-17T04:44:16.805Z,5.70
2018-07-17T04:46:45.147Z,6.00
2018-07-17T04:49:14.370Z,5.50
2018-07-17T04:51:43.570Z,5.73
2018-07-17T04:54:11.975Z,5.63
2018-07-17T04:56:40.598Z,5.70
2018-07-17T04:59:09.245Z,5.60
2018-07-17T05:01:37.698Z,5.77
2018-07-17T05:04:06.167Z,5.57
2018-07-17T05:06:35.270Z,5.87
2018-07-17T05:09:04.479Z,6.13
2018-07-17T05:11:32.946Z,5.90
2018-07-17T05:14:01.639Z,5.60
2018-07-17T05:16:36.623Z,5.47
2018-07-17T05:19:05.588Z,5.50
2018-07-17T05:21:34.218Z,6.27
2018-07-17T05:24:03.023Z,5.67
2018-07-17T05:26:31.507Z,6.03
2018-07-17T05:29:00.249Z,6.37
2018-07-17T05:31:29.021Z,5.93
2018-07-17T05:33:57.438Z,5.50
2018-07-17T05:36:26.269Z,6.10
2018-07-17T05:38:54.702Z,5.80
2018-07-17T05:41:23.386Z,5.58
2018-07-17T05:43:51.990Z,5.95
2018-07-17T05:46:21.259Z,5.62
2018-07-17T05:48:49.776Z,6.10
2018-07-17T05:51:18.366Z,5.40
2018-07-17T05:53:47.268Z,6.22
2018-07-17T05:56:15.706Z,6.20
2018-07-17T05:58:44.399Z,5.83
2018-07-17T06:01:13.301Z,5.70
2018-07-17T06:03:42.090Z,5.70
2018-07-17T06:06:10.508Z,5.85
2018-07-17T06:08:39.048Z,6.03
2018-07-17T06:11:07.788Z,5.95
2018-07-17T06:13:36.254Z,5.92
2018-07-17T06:16:05.114Z,5.95
2018-07-17T06:18:33.907Z,5.87
2018-07-17T06:21:02.282Z,5.72
2018-07-17T06:23:31.150Z,6.15
2018-07-17T06:25:59.962Z,6.00
2018-07-17T06:28:28.386Z,5.97
2018-07-17T06:30:57.248Z,6.70
2018-07-17T06:33:26.470Z,6.83
2018-07-17T06:35:55.006Z,6.12
2018-07-17T06:38:23.608Z,5.67
2018-07-17T06:40:52.018Z,6.05
2018-07-17T06:43:20.762Z,6.15
2018-07-17T06:45:49.971Z,6.20
2018-07-17T06:48:18.359Z,6.00
2018-07-17T06:50:47.178Z,6.35
2018-07-17T06:53:16.970Z,6.05
2018-07-17T06:55:45.376Z,6.08
2018-07-17T06:58:14.334Z,6.40
2018-07-17T07:00:43.124Z,6.05
2018-07-17T07:03:11.538Z,5.87
2018-07-17T07:05:39.939Z,6.00
2018-07-17T07:08:08.839Z,6.05
2018-07-17T07:10:37.509Z,5.95
2018-07-17T07:13:06.329Z,5.60
2018-07-17T07:15:34.759Z,6.03
2018-07-17T07:18:03.574Z,5.87
2018-07-17T07:20:31.963Z,5.80
2018-07-17T07:23:00.869Z,6.22
2018-07-17T07:25:29.618Z,6.10
2018-07-17T07:27:58.014Z,5.70
2018-07-17T07:30:26.685Z,6.17
2018-07-17T07:32:55.422Z,5.58
2018-07-17T07:35:24.222Z,5.85
2018-07-17T07:37:52.783Z,5.85
2018-07-17T07:40:22.313Z,5.58
2018-07-17T07:42:51.083Z,5.75
2018-07-17T07:45:20.044Z,5.95
2018-07-17T07:47:48.436Z,5.05
2018-07-17T07:50:17.094Z,5.40
2018-07-17T07:52:45.851Z,5.03
2018-07-17T07:55:14.514Z,5.20
2018-07-17T07:57:43.152Z,5.45
2018-07-17T08:00:11.742Z,4.95
2018-07-17T08:02:40.274Z,5.53
2018-07-17T08:05:08.928Z,5.40
2018-07-17T08:07:37.346Z,5.78
2018-07-17T08:10:06.545Z,5.37
2018-07-17T08:12:35.392Z,5.35
2018-07-17T08:15:03.851Z,5.72
2018-07-17T08:17:32.282Z,5.85
2018-07-17T08:20:01.042Z,5.30
2018-07-17T08:22:29.994Z,5.20
2018-07-17T08:24:58.622Z,5.50
2018-07-17T08:27:27.094Z,5.20
2018-07-17T08:29:55.814Z,5.50
2018-07-17T08:32:24.198Z,5.60
2018-07-17T08:34:52.642Z,5.42
2018-07-17T08:37:21.971Z,5.55
2018-07-17T08:39:50.458Z,5.60
2018-07-17T08:42:18.882Z,6.30
2018-07-17T08:44:48.099Z,5.72
2018-07-17T08:47:16.558Z,6.00
2018-07-17T08:49:44.946Z,6.22
2018-07-17T08:52:13.661Z,6.67
2018-07-17T08:54:42.161Z,6.67
2018-07-17T08:57:10.991Z,6.33
2018-07-17T08:59:39.843Z,6.37
2018-07-17T09:02:08.331Z,6.22
2018-07-17T09:04:36.740Z,6.40
2018-07-17T09:07:05.452Z,6.80
2018-07-17T09:09:34.106Z,6.28
2018-07-17T09:12:02.507Z,6.45
2018-07-17T09:14:31.700Z,6.55
2018-07-17T09:17:00.470Z,6.22
2018-07-17T09:19:28.919Z,5.83
2018-07-17T09:21:58.048Z,5.80
2018-07-17T09:24:26.859Z,5.87
2018-07-17T09:26:55.266Z,6.45
2018-07-17T09:29:24.094Z,6.28
2018-07-17T09:31:52.888Z,5.72
2018-07-17T09:34:21.296Z,5.58
2018-07-17T09:36:49.880Z,5.67
2018-07-17T09:39:18.724Z,6.22
2018-07-17T09:41:47.122Z,5.97
2018-07-17T09:44:15.956Z,6.35
2018-07-17T09:46:44.716Z,6.30
2018-07-17T09:49:13.358Z,6.00
2018-07-17T09:51:42.277Z,5.95
2018-07-17T09:54:10.703Z,6.05
2018-07-17T09:56:39.442Z,6.10
2018-07-17T09:59:08.030Z,5.80
2018-07-17T10:01:41.619Z,6.30
2018-07-17T10:04:10.645Z,6.05
2018-07-17T10:06:39.145Z,6.20
2018-07-17T10:09:08.030Z,6.22
2018-07-17T10:11:37.014Z,6.40
2018-07-17T10:14:05.763Z,6.60
2018-07-17T10:16:34.251Z,6.17
2018-07-17T10:19:02.987Z,5.85
2018-07-17T10:21:31.618Z,6.45
2018-07-17T10:24:00.545Z,6.67
2018-07-17T10:26:29.546Z,6.37
2018-07-17T10:28:57.960Z,6.10
2018-07-17T10:31:26.456Z,6.25
2018-07-17T10:33:55.023Z,6.42
2018-07-17T10:36:23.457Z,6.17
2018-07-17T10:38:52.054Z,6.20
2018-07-17T10:41:21.553Z,6.03
2018-07-17T10:43:50.623Z,6.75
2018-07-17T10:46:19.694Z,6.50
2018-07-17T10:48:48.912Z,7.08
2018-07-17T10:51:17.407Z,6.12
2018-07-17T10:53:45.970Z,6.53
2018-07-17T10:56:15.231Z,6.90
2018-07-17T10:58:44.056Z,6.50
2018-07-17T11:01:12.481Z,6.28
2018-07-17T11:03:41.652Z,6.00
2018-07-17T11:06:10.101Z,6.35
2018-07-17T11:08:38.561Z,6.10
2018-07-17T11:11:08.085Z,6.35
2018-07-17T11:13:36.516Z,6.28
2018-07-17T11:16:05.493Z,5.62
2018-07-17T11:18:34.714Z,6.37
2018-07-17T11:21:03.191Z,6.12
2018-07-17T11:23:31.650Z,5.90
2018-07-17T11:26:01.282Z,6.22
2018-07-17T11:28:29.761Z,6.00
2018-07-17T11:30:58.231Z,6.03
2018-07-17T11:33:26.890Z,5.97
2018-07-17T11:35:55.501Z,6.45
2018-07-17T11:38:24.321Z,6.22
2018-07-17T11:40:52.916Z,5.87
2018-07-17T11:43:22.053Z,7.30
2018-07-17T11:45:51.473Z,6.12
2018-07-17T11:48:21.027Z,6.08
2018-07-17T11:50:50.039Z,5.90
2018-07-17T11:53:18.511Z,6.20
2018-07-17T11:55:47.553Z,6.50
2018-07-17T11:58:16.038Z,6.78
2018-07-17T12:00:44.826Z,5.47
2018-07-17T12:03:13.693Z,6.60
2018-07-17T12:05:42.205Z,6.20
2018-07-17T12:08:10.989Z,6.15
2018-07-17T12:10:40.374Z,5.67
2018-07-17T12:13:09.417Z,5.55
2018-07-17T12:15:37.809Z,6.03
2018-07-17T12:18:06.729Z,5.87
2018-07-17T12:20:35.709Z,5.90
2018-07-17T12:23:04.258Z,5.55
2018-07-17T12:25:33.096Z,6.20
2018-07-17T12:28:01.953Z,5.90
2018-07-17T12:30:30.393Z,5.85
2018-07-17T12:32:59.165Z,5.90
2018-07-17T12:35:28.069Z,6.20
2018-07-17T12:37:56.667Z,5.87
2018-07-17T12:40:25.349Z,6.08
2018-07-17T12:42:54.004Z,6.15
2018-07-17T12:45:22.865Z,5.70
2018-07-17T12:47:51.607Z,5.42
2018-07-17T12:50:20.016Z,5.47
2018-07-17T12:52:48.526Z,5.87
2018-07-17T12:55:16.982Z,4.83
2018-07-17T12:57:45.379Z,5.22
2018-07-17T13:00:14.151Z,5.28
2018-07-17T13:02:42.827Z,5.35
2018-07-17T13:05:11.327Z,4.60
2018-07-17T13:07:39.885Z,5.12
2018-07-17T13:10:08.330Z,5.85
2018-07-17T13:12:36.746Z,5.62
2018-07-17T13:15:05.399Z,5.92
2018-07-17T13:17:34.394Z,5.78
2018-07-17T13:20:03.027Z,5.72
2018-07-17T13:22:31.682Z,5.55
2018-07-17T13:25:00.275Z,5.62
2018-07-17T13:27:28.773Z,5.53
2018-07-17T13:29:57.747Z,6.10
2018-07-17T13:32:26.671Z,6.30
2018-07-17T13:34:55.080Z,5.60
2018-07-17T13:37:23.494Z,5.53
2018-07-17T13:39:52.080Z,6.12
2018-07-17T13:42:21.503Z,6.03
2018-07-17T13:44:49.948Z,6.17
2018-07-17T13:47:20.003Z,6.15
2018-07-17T13:49:48.481Z,5.58
2018-07-17T13:52:16.960Z,5.97
2018-07-17T13:54:45.718Z,6.05
2018-07-17T13:57:14.139Z,6.08
2018-07-17T13:59:42.902Z,5.67
2018-07-17T14:02:11.614Z,5.78
2018-07-17T14:04:40.843Z,5.62
2018-07-17T14:07:09.235Z,4.90
2018-07-17T14:09:37.842Z,5.17
2018-07-17T14:12:06.627Z,5.05
2018-07-17T14:14:35.014Z,5.10
2018-07-17T14:17:03.811Z,5.40
2018-07-17T14:19:32.707Z,5.50
2018-07-17T14:22:01.355Z,5.58
2018-07-17T14:24:29.863Z,4.92
2018-07-17T14:26:58.266Z,5.03
2018-07-17T14:29:27.111Z,5.10
2018-07-17T14:31:55.694Z,5.15
2018-07-17T14:34:24.099Z,5.20
2018-07-17T14:36:52.886Z,5.17
2018-07-17T14:39:21.360Z,4.90
2018-07-17T14:41:50.119Z,4.83
2018-07-17T14:44:19.149Z,5.30
2018-07-17T14:46:47.936Z,4.50
2018-07-17T14:49:16.752Z,4.87
2018-07-17T14:51:45.303Z,4.47
2018-07-17T14:54:14.479Z,4.72
2018-07-17T14:56:42.877Z,4.97
2018-07-17T14:59:11.275Z,5.00
2018-07-17T15:01:39.743Z,4.65
2018-07-17T15:04:08.162Z,5.08
2018-07-17T15:06:36.574Z,5.65
2018-07-17T15:09:07.220Z,5.62
2018-07-17T15:11:35.627Z,5.95
2018-07-17T15:14:04.052Z,5.72
2018-07-17T15:16:32.862Z,5.70
2018-07-17T15:19:01.274Z,5.67
2018-07-17T15:21:29.782Z,5.83
2018-07-17T15:24:01.239Z,5.65
2018-07-17T15:26:29.954Z,5.67
2018-07-17T15:28:58.338Z,5.78
2018-07-17T15:31:27.241Z,5.67
2018-07-17T15:33:55.985Z,6.03
2018-07-17T15:36:24.415Z,5.83
2018-07-17T15:38:53.608Z,5.45
2018-07-17T15:41:22.471Z,6.05
2018-07-17T15:43:51.048Z,5.62
2018-07-17T15:46:20.229Z,6.03
2018-07-17T15:48:49.367Z,5.72
2018-07-17T15:51:18.255Z,5.40
2018-07-17T15:53:46.942Z,5.22
2018-07-17T15:56:15.354Z,5.47
2018-07-17T15:58:44.114Z,5.60
2018-07-17T16:01:13.310Z,6.12
2018-07-17T16:03:41.711Z,5.40
2018-07-17T16:06:10.498Z,5.70
2018-07-17T16:08:39.446Z,5.55
2018-07-17T16:11:08.074Z,5.33
2018-07-17T16:13:37.023Z,5.55
2018-07-17T16:16:06.091Z,5.50
2018-07-17T16:18:34.760Z,6.08
2018-07-17T16:21:03.191Z,5.83
2018-07-17T16:23:31.866Z,5.72
2018-07-17T16:26:00.551Z,6.05
2018-07-17T16:28:29.234Z,6.22
2018-07-17T16:30:58.434Z,6.20
2018-07-17T16:33:27.200Z,5.62
2018-07-17T16:35:55.851Z,6.67
2018-07-17T16:38:24.587Z,5.83
2018-07-17T16:40:53.532Z,6.65
2018-07-17T16:43:21.948Z,7.08
2018-07-17T16:45:50.831Z,6.42
2018-07-17T16:48:19.342Z,5.83
2018-07-17T16:50:47.874Z,6.67
2018-07-17T16:53:16.597Z,6.00
2018-07-17T16:55:44.985Z,6.65
2018-07-17T16:58:13.551Z,6.30
2018-07-17T17:00:42.192Z,5.65
2018-07-17T17:03:10.843Z,6.17
2018-07-17T17:05:39.498Z,6.72
2018-07-17T17:08:09.006Z,6.37
2018-07-17T17:10:37.867Z,6.78
2018-07-17T17:13:06.792Z,6.75
2018-07-17T17:15:35.370Z,6.22
2018-07-17T17:18:04.035Z,6.70
2018-07-17T17:20:32.830Z,6.28
2018-07-17T17:23:01.460Z,6.67
2018-07-17T17:25:29.852Z,6.20
2018-07-17T17:27:58.335Z,6.20
2018-07-17T17:30:26.904Z,6.90
2018-07-17T17:32:55.403Z,6.72
2018-07-17T17:35:24.066Z,7.05
2018-07-17T17:37:53.018Z,6.58
2018-07-17T17:40:21.436Z,6.15
2018-07-17T17:42:50.286Z,6.58
2018-07-17T17:45:20.252Z,7.00
2018-07-17T17:47:48.635Z,6.85
2018-07-17T17:50:17.034Z,6.85
2018-07-17T17:52:45.780Z,6.33
2018-07-17T17:55:14.615Z,6.75
2018-07-17T17:57:43.002Z,6.62
2018-07-17T18:00:11.852Z,6.90
2018-07-17T18:02:40.259Z,6.70
2018-07-17T18:05:08.678Z,7.58
2018-07-17T18:07:37.777Z,6.83
2018-07-17T18:10:06.624Z,6.90
2018-07-17T18:12:35.029Z,6.78
2018-07-17T18:15:04.170Z,6.70
2018-07-17T18:17:32.566Z,7.28
2018-07-17T18:20:00.983Z,6.65
2018-07-17T18:22:30.178Z,6.22
2018-07-17T18:24:58.984Z,6.50
2018-07-17T18:27:27.390Z,7.28
2018-07-17T18:29:55.874Z,6.67
2018-07-17T18:32:24.727Z,7.00
2018-07-17T18:34:53.126Z,7.53
2018-07-17T18:37:21.573Z,7.12
2018-07-17T18:39:50.482Z,6.70
2018-07-17T18:42:19.808Z,7.50
2018-07-17T18:44:48.668Z,7.05
2018-07-17T18:47:17.063Z,7.40
2018-07-17T18:49:45.837Z,7.05
2018-07-17T18:52:14.442Z,7.40
2018-07-17T18:54:43.036Z,7.15
2018-07-17T18:57:12.202Z,6.92
2018-07-17T18:59:40.840Z,6.87
2018-07-17T19:02:09.308Z,7.05
2018-07-17T19:04:38.064Z,6.87
2018-07-17T19:07:06.946Z,6.97
2018-07-17T19:09:35.320Z,6.67
2018-07-17T19:12:04.291Z,6.72
2018-07-17T19:14:33.178Z,7.15
2018-07-17T19:17:01.719Z,6.72
2018-07-17T19:19:30.111Z,6.72
2018-07-17T19:21:59.667Z,6.67
2018-07-17T19:24:28.199Z,6.58
2018-07-17T19:26:56.758Z,7.78
2018-07-17T19:29:26.044Z,7.00
2018-07-17T19:31:54.717Z,6.58
2018-07-17T19:34:24.098Z,7.17
2018-07-17T19:36:53.129Z,7.15
2018-07-17T19:39:21.697Z,6.87
2018-07-17T19:41:50.350Z,6.70
2018-07-17T19:44:20.490Z,7.00
2018-07-17T19:46:49.734Z,7.90
2018-07-17T19:49:18.763Z,7.15
2018-07-17T19:51:47.482Z,7.28
2018-07-17T19:54:15.951Z,7.22
2018-07-17T19:56:44.741Z,7.22
2018-07-17T19:59:13.832Z,7.20
2018-07-17T20:01:42.251Z,7.37
2018-07-17T20:04:10.829Z,7.87
2018-07-17T20:06:39.715Z,7.70
2018-07-17T20:09:08.744Z,7.65
2018-07-17T20:11:37.146Z,7.67
2018-07-17T20:14:06.556Z,7.83
2018-07-17T20:16:34.954Z,7.37
2018-07-17T20:19:03.394Z,7.60
2018-07-17T20:21:32.216Z,7.67
2018-07-17T20:24:01.130Z,7.70
2018-07-17T20:26:29.602Z,7.62
2018-07-17T20:28:58.386Z,7.60
2018-07-17T20:31:27.222Z,7.47
2018-07-17T20:33:55.596Z,8.00
2018-07-17T20:36:24.706Z,7.72
2018-07-17T20:38:56.482Z,7.83
2018-07-17T20:41:25.802Z,7.70
2018-07-17T20:43:54.234Z,8.33
2018-07-17T20:46:22.714Z,8.00
2018-07-17T20:48:51.948Z,7.45
2018-07-17T20:51:20.362Z,7.60
2018-07-17T20:53:48.868Z,7.90
2018-07-17T20:56:17.582Z,7.50
2018-07-17T20:58:46.484Z,8.35
2018-07-17T21:01:15.546Z,8.33
2018-07-17T21:03:44.302Z,8.30
2018-07-17T21:06:13.101Z,8.35
2018-07-17T21:08:41.567Z,8.08
2018-07-17T21:11:10.466Z,8.60
2018-07-17T21:13:39.149Z,8.73
2018-07-17T21:16:08.534Z,8.25
2018-07-17T21:18:37.358Z,8.13
2018-07-17T21:21:05.813Z,8.38
2018-07-17T21:23:34.489Z,8.40
2018-07-17T21:26:03.090Z,7.62
2018-07-17T21:28:31.845Z,8.28
2018-07-17T21:31:00.544Z,8.85
2018-07-17T21:33:29.137Z,8.38
2018-07-17T21:35:57.604Z,8.80
2018-07-17T21:38:26.305Z,8.75
2018-07-17T21:40:55.600Z,8.83
2018-07-17T21:43:24.089Z,8.10
2018-07-17T21:45:52.737Z,8.65
2018-07-17T21:48:21.597Z,8.63
2018-07-17T21:50:51.074Z,8.48
2018-07-17T21:53:20.018Z,9.18
2018-07-17T21:55:49.123Z,7.87
2018-07-17T21:58:17.625Z,8.40
2018-07-17T22:00:46.102Z,8.53
2018-07-17T22:03:15.235Z,8.15
2018-07-17T22:05:43.710Z,8.18
2018-07-17T22:08:12.150Z,8.88
2018-07-17T22:10:41.537Z,8.53
2018-07-17T22:13:09.958Z,8.25
2018-07-17T22:15:38.537Z,8.35
2018-07-17T22:18:08.024Z,8.83
2018-07-17T22:20:36.728Z,8.80
2018-07-17T22:23:05.732Z,7.67
2018-07-17T22:25:34.224Z,8.63
2018-07-17T22:28:03.078Z,8.47
2018-07-17T22:30:31.814Z,8.73
2018-07-17T22:33:00.315Z,8.43
2018-07-17T22:35:29.421Z,8.53
2018-07-17T22:37:58.272Z,8.88
2018-07-17T22:40:27.097Z,8.60
2018-07-17T22:42:55.595Z,8.75
2018-07-17T22:45:24.193Z,8.25
2018-07-17T22:47:53.069Z,8.70
2018-07-17T22:50:21.505Z,8.50
2018-07-17T22:52:50.221Z,8.87
2018-07-17T22:55:19.257Z,8.63
2018-07-17T22:57:47.702Z,8.63
2018-07-17T23:00:16.414Z,8.23
2018-07-17T23:02:45.079Z,8.65
2018-07-17T23:05:13.805Z,9.23
2018-07-17T23:07:42.341Z,8.63
2018-07-17T23:10:11.253Z,8.77
2018-07-17T23:12:39.706Z,8.60
2018-07-17T23:15:08.493Z,8.60
2018-07-17T23:17:37.441Z,9.13
2018-07-17T23:20:07.044Z,8.40
2018-07-17T23:22:53.529Z,9.17
2018-07-17T23:25:23.530Z,9.13
2018-07-17T23:27:52.389Z,9.07
2018-07-17T23:30:20.867Z,8.80
2018-07-17T23:32:50.995Z,9.00
2018-07-17T23:35:20.920Z,9.23
2018-07-17T23:37:49.886Z,9.20
2018-07-17T23:40:18.553Z,9.00
2018-07-17T23:42:48.065Z,9.10
2018-07-17T23:45:17.203Z,9.37
2018-07-17T23:47:46.492Z,8.83
2018-07-17T23:50:15.776Z,9.10
2018-07-17T23:52:44.253Z,8.80
2018-07-17T23:55:12.849Z,9.47
2018-07-17T23:57:42.053Z,8.83
